Time;durP1;ratioP1;P1;durP2;ratioP2;P2;SDS_P1;SDS_P2;PMS_P1;PMS_P2;Temp;Humidity;BMP_temperature;BMP_pressure;BME280_temperature;BME280_humidity;BME280_pressure;Samples;Min_cycle;Max_cycle;Signal;HPM_P1;HPM_P2
2022/04/02 00:00:59;;;;;;;5.17;1.80;;;3.20;99.90;;;;;;5054694;28;37155;-75
2022/04/02 00:03:25;;;;;;;6.67;1.77;;;3.30;99.90;;;;;;5046637;28;37311;-75
2022/04/02 00:05:52;;;;;;;8.63;1.80;;;3.30;99.90;;;;;;5064741;28;36876;-75
2022/04/02 00:08:18;;;;;;;6.03;2.47;;;3.40;99.90;;;;;;5040229;28;40569;-75
2022/04/02 00:10:45;;;;;;;5.17;1.80;;;3.40;99.90;;;;;;5061712;28;38490;-75
2022/04/02 00:13:11;;;;;;;4.57;1.30;;;3.40;99.90;;;;;;5046429;28;39910;-75
2022/04/02 00:15:37;;;;;;;7.70;1.97;;;3.30;99.90;;;;;;5057893;28;38582;-75
2022/04/02 00:18:03;;;;;;;5.87;2.00;;;3.30;99.90;;;;;;5055116;27;36793;-75
2022/04/02 00:20:29;;;;;;;9.10;1.67;;;3.20;99.90;;;;;;5058251;28;38644;-75
2022/04/02 00:25:40;;;;;;;5.83;2.00;;;3.00;99.90;;;;;;5057297;28;49716;-74
2022/04/02 00:28:06;;;;;;;4.37;1.80;;;2.90;99.90;;;;;;5054403;28;36257;-75
2022/04/02 00:30:32;;;;;;;12.50;2.60;;;2.90;99.90;;;;;;5061282;28;38618;-75
2022/04/02 00:33:01;;;;;;;4.20;1.73;;;2.80;99.90;;;;;;5049989;28;38568;-76
2022/04/02 00:35:27;;;;;;;3.73;1.63;;;2.70;99.90;;;;;;5060426;28;49066;-75
2022/04/02 00:37:56;;;;;;;5.03;2.07;;;2.70;99.90;;;;;;5054422;28;37412;-75
2022/04/02 00:40:22;;;;;;;7.57;2.30;;;2.60;99.90;;;;;;5056951;28;37802;-75
2022/04/02 00:42:48;;;;;;;6.30;2.20;;;2.50;99.90;;;;;;5058698;28;37271;-74
2022/04/02 00:45:14;;;;;;;9.33;2.70;;;2.40;99.90;;;;;;5058087;28;37092;-74
2022/04/02 00:47:41;;;;;;;5.07;2.00;;;2.40;99.90;;;;;;5056508;27;38554;-74
2022/04/02 00:50:08;;;;;;;5.37;2.00;;;2.50;99.90;;;;;;5045252;28;38380;-74
2022/04/02 00:52:34;;;;;;;9.10;2.57;;;2.50;99.90;;;;;;5054960;27;38911;-75
2022/04/02 00:55:00;;;;;;;3.33;1.80;;;2.60;99.90;;;;;;5057704;28;36068;-75
2022/04/02 00:57:29;;;;;;;4.93;2.20;;;2.70;99.90;;;;;;5038491;28;37858;-75
2022/04/02 00:59:56;;;;;;;5.50;2.37;;;2.80;99.90;;;;;;5066875;28;37199;-75
2022/04/02 01:02:22;;;;;;;5.30;2.60;;;2.90;99.90;;;;;;5053446;28;37955;-75
2022/04/02 01:04:51;;;;;;;7.10;2.40;;;3.00;99.90;;;;;;5051362;28;37809;-75
2022/04/02 01:07:19;;;;;;;3.70;2.10;;;3.10;99.90;;;;;;5053563;28;38872;-75
2022/04/02 01:09:45;;;;;;;4.33;2.03;;;3.10;99.90;;;;;;5055028;28;37853;-76
2022/04/02 01:12:11;;;;;;;4.47;2.53;;;3.10;99.90;;;;;;5054401;28;39705;-75
2022/04/02 01:14:37;;;;;;;8.67;2.53;;;3.10;99.90;;;;;;5048581;28;36162;-75
2022/04/02 01:17:06;;;;;;;4.47;2.00;;;3.10;99.90;;;;;;5058638;27;38879;-75
2022/04/02 01:19:33;;;;;;;7.90;2.93;;;3.20;99.90;;;;;;5041236;28;38031;-75
2022/04/02 01:21:59;;;;;;;10.30;2.27;;;3.20;99.90;;;;;;5052139;28;37932;-75
2022/04/02 01:24:25;;;;;;;5.30;2.20;;;3.20;99.90;;;;;;5048175;28;35864;-76
2022/04/02 01:26:55;;;;;;;10.93;1.93;;;3.20;99.90;;;;;;5055030;28;38888;-75
2022/04/02 01:29:21;;;;;;;8.43;2.50;;;3.30;99.90;;;;;;5054205;28;37573;-76
2022/04/02 01:31:47;;;;;;;6.70;2.33;;;3.30;99.90;;;;;;5060604;28;37747;-75
2022/04/02 01:34:13;;;;;;;8.60;2.53;;;3.30;99.90;;;;;;5059264;28;35787;-75
2022/04/02 01:36:39;;;;;;;8.57;2.23;;;3.30;99.90;;;;;;5065865;28;37816;-76
2022/04/02 01:39:07;;;;;;;9.43;2.63;;;3.30;99.90;;;;;;5044761;28;38441;-76
2022/04/02 01:41:34;;;;;;;6.23;2.03;;;3.30;99.90;;;;;;5054254;28;47125;-76
2022/04/02 01:44:00;;;;;;;8.17;2.23;;;3.30;99.90;;;;;;5055230;28;37772;-76
2022/04/02 01:46:26;;;;;;;7.43;2.37;;;3.30;99.90;;;;;;5047370;28;37811;-75
2022/04/02 01:48:52;;;;;;;6.27;2.10;;;3.30;99.90;;;;;;5050888;28;38984;-75
2022/04/02 01:51:18;;;;;;;11.97;2.43;;;3.20;99.90;;;;;;5060485;28;38591;-75
2022/04/02 01:53:44;;;;;;;6.97;2.27;;;3.20;99.90;;;;;;5050177;28;39198;-75
2022/04/02 01:56:10;;;;;;;10.23;1.80;;;3.20;99.90;;;;;;5063678;28;38817;-75
2022/04/02 01:58:36;;;;;;;5.33;2.37;;;3.20;99.90;;;;;;5070420;27;37387;-75
2022/04/02 02:01:06;;;;;;;6.47;2.37;;;3.20;99.90;;;;;;5053191;28;37799;-75
2022/04/02 02:03:32;;;;;;;10.50;1.87;;;3.10;99.90;;;;;;5056807;28;36663;-75
2022/04/02 02:05:58;;;;;;;7.17;2.50;;;3.10;99.90;;;;;;5049081;28;39270;-75
2022/04/02 02:08:25;;;;;;;6.67;2.17;;;3.10;99.90;;;;;;5049442;28;41141;-75
2022/04/02 02:10:51;;;;;;;6.57;2.03;;;3.00;99.90;;;;;;5055530;28;39970;-75
2022/04/02 02:13:17;;;;;;;4.87;2.00;;;2.90;99.90;;;;;;5050487;28;38813;-75
2022/04/02 02:15:43;;;;;;;6.83;2.40;;;2.90;99.90;;;;;;5056766;28;39844;-75
2022/04/02 02:18:09;;;;;;;7.20;2.73;;;2.80;99.90;;;;;;5056788;28;39789;-76
2022/04/02 02:20:36;;;;;;;4.70;2.30;;;2.80;99.90;;;;;;5059372;28;38037;-75
2022/04/02 02:23:02;;;;;;;8.43;2.33;;;2.80;99.90;;;;;;5042485;28;37903;-75
2022/04/02 02:25:28;;;;;;;6.97;2.20;;;2.80;99.90;;;;;;5042585;28;39348;-75
2022/04/02 02:27:54;;;;;;;6.97;2.43;;;2.80;99.90;;;;;;5060645;28;38491;-75
2022/04/02 02:30:21;;;;;;;4.07;2.33;;;2.70;99.90;;;;;;5040431;28;36400;-75
2022/04/02 02:32:47;;;;;;;9.93;3.10;;;2.60;99.90;;;;;;5058422;28;37934;-76
2022/04/02 02:38:11;;;;;;;3.83;2.30;;;2.60;99.90;;;;;;5060526;27;39004;-75
2022/04/02 02:40:39;;;;;;;5.17;2.37;;;2.60;99.90;;;;;;5074136;28;47403;-75
2022/04/02 02:43:06;;;;;;;11.10;2.73;;;2.60;99.90;;;;;;5062060;28;37204;-75
2022/04/02 02:45:33;;;;;;;9.53;2.20;;;2.50;99.90;;;;;;5071103;28;38369;-75
2022/04/02 02:48:04;;;;;;;7.70;2.30;;;2.60;99.90;;;;;;5054998;28;38246;-75
2022/04/02 02:50:33;;;;;;;2.30;1.83;;;2.50;99.90;;;;;;5065625;28;49159;-75
2022/04/02 02:53:02;;;;;;;5.03;2.27;;;2.40;99.90;;;;;;5058745;28;38978;-75
2022/04/02 02:55:28;;;;;;;7.23;2.37;;;2.40;99.90;;;;;;5036726;28;48100;-75
2022/04/02 02:57:55;;;;;;;7.40;2.90;;;2.50;99.90;;;;;;5055193;28;39228;-76
2022/04/02 03:00:21;;;;;;;8.07;2.60;;;2.50;99.90;;;;;;5058616;28;38614;-75
2022/04/02 03:02:47;;;;;;;7.13;2.73;;;2.50;99.90;;;;;;5060151;27;37063;-75
2022/04/02 03:05:15;;;;;;;11.33;2.90;;;2.50;99.90;;;;;;5048210;28;39423;-76
2022/04/02 03:07:50;;;;;;;7.53;2.93;;;2.50;99.90;;;;;;5063618;27;38134;-75
2022/04/02 03:10:17;;;;;;;6.80;3.07;;;2.50;99.90;;;;;;5056955;28;37123;-75
2022/04/02 03:12:46;;;;;;;6.83;2.43;;;2.40;99.90;;;;;;5058454;28;37347;-75
2022/04/02 03:15:15;;;;;;;7.47;2.97;;;2.40;99.90;;;;;;5057465;28;38517;-75
2022/04/02 03:17:43;;;;;;;9.00;2.90;;;2.30;99.90;;;;;;5077753;28;39359;-75
2022/04/02 03:20:13;;;;;;;5.80;2.90;;;2.30;99.90;;;;;;5063024;28;38756;-75
2022/04/02 03:22:40;;;;;;;4.80;2.53;;;2.30;99.90;;;;;;5061254;27;37335;-75
2022/04/02 03:25:11;;;;;;;8.00;2.90;;;2.40;99.90;;;;;;5055011;28;39383;-76
2022/04/02 03:27:43;;;;;;;9.87;3.33;;;2.40;99.90;;;;;;5056719;28;38793;-75
2022/04/02 03:30:10;;;;;;;4.00;2.93;;;2.40;99.90;;;;;;5057555;28;37417;-75
2022/04/02 03:32:38;;;;;;;7.53;3.43;;;2.30;99.90;;;;;;5061720;28;37155;-75
2022/04/02 03:35:05;;;;;;;6.43;2.40;;;2.30;99.90;;;;;;5058324;28;38878;-76
2022/04/02 03:37:33;;;;;;;6.10;3.40;;;2.30;99.90;;;;;;5062043;28;37080;-75
2022/04/02 03:39:59;;;;;;;7.20;2.87;;;2.30;99.90;;;;;;5060924;28;37061;-75
2022/04/02 03:42:25;;;;;;;6.23;3.10;;;2.20;99.90;;;;;;5063176;28;37039;-75
2022/04/02 03:44:51;;;;;;;4.80;2.77;;;2.10;99.90;;;;;;5060177;28;38820;-75
2022/04/02 03:47:22;;;;;;;6.80;2.60;;;2.10;99.90;;;;;;5053413;28;37777;-75
2022/04/02 03:49:50;;;;;;;10.03;2.93;;;2.00;99.90;;;;;;5059878;28;37276;-76
2022/04/02 03:52:17;;;;;;;6.47;3.10;;;2.00;99.90;;;;;;5060130;27;36012;-75
2022/04/02 03:54:43;;;;;;;10.43;2.73;;;2.00;99.90;;;;;;5057383;28;37829;-75
2022/04/02 03:57:11;;;;;;;4.87;2.90;;;2.00;99.90;;;;;;5074648;28;39296;-75
2022/04/02 03:59:37;;;;;;;5.77;3.20;;;1.90;99.90;;;;;;5059892;28;34649;-75
2022/04/02 04:02:07;;;;;;;7.63;3.37;;;1.90;99.90;;;;;;5055616;28;36031;-75
2022/04/02 04:04:33;;;;;;;5.20;3.03;;;1.90;99.90;;;;;;5057138;28;40909;-75
2022/04/02 04:07:02;;;;;;;5.40;2.73;;;1.80;99.90;;;;;;5060105;28;39932;-75
2022/04/02 04:09:29;;;;;;;5.07;3.37;;;1.90;99.90;;;;;;5057583;28;48909;-75
2022/04/02 04:11:55;;;;;;;6.43;3.20;;;1.90;99.90;;;;;;5058508;28;37393;-75
2022/04/02 04:14:28;;;;;;;6.07;3.30;;;1.80;99.90;;;;;;5058781;28;39616;-75
2022/04/02 04:16:55;;;;;;;8.93;3.40;;;1.80;99.90;;;;;;5060477;28;38483;-75
2022/04/02 04:19:21;;;;;;;6.40;3.30;;;1.80;99.90;;;;;;5055127;28;38877;-75
2022/04/02 04:21:51;;;;;;;5.10;3.40;;;1.80;99.90;;;;;;5061428;28;34852;-75
2022/04/02 04:24:17;;;;;;;5.63;3.40;;;1.90;99.90;;;;;;5059434;28;40576;-75
2022/04/02 04:26:43;;;;;;;5.33;3.47;;;1.90;99.90;;;;;;5059055;28;38675;-75
2022/04/02 04:29:09;;;;;;;12.47;3.93;;;1.90;99.90;;;;;;5051395;28;37828;-74
2022/04/02 04:31:36;;;;;;;5.10;3.13;;;1.90;99.90;;;;;;5058178;28;37706;-75
2022/04/02 04:34:02;;;;;;;4.50;3.20;;;1.90;99.90;;;;;;5059969;27;39315;-74
2022/04/02 04:36:32;;;;;;;9.00;3.00;;;1.90;99.90;;;;;;5058835;28;38023;-75
2022/04/02 04:39:01;;;;;;;7.13;3.10;;;1.90;99.90;;;;;;5052101;28;36568;-75
2022/04/02 04:41:27;;;;;;;9.03;3.40;;;1.90;99.90;;;;;;5065801;28;47742;-75
2022/04/02 04:43:54;;;;;;;7.30;3.10;;;1.90;99.90;;;;;;5052926;28;40287;-75
2022/04/02 04:46:20;;;;;;;8.40;3.67;;;1.90;99.90;;;;;;5054585;28;38300;-75
2022/04/02 04:48:49;;;;;;;9.07;3.63;;;1.80;99.90;;;;;;5054570;28;39757;-75
2022/04/02 04:51:16;;;;;;;6.30;3.53;;;1.80;99.90;;;;;;5070006;28;38549;-76
2022/04/02 04:53:42;;;;;;;10.07;3.37;;;1.80;99.90;;;;;;5049027;27;38661;-75
2022/04/02 04:56:08;;;;;;;6.30;2.97;;;1.90;99.90;;;;;;5055691;28;38338;-75
2022/04/02 04:58:34;;;;;;;4.90;3.27;;;2.00;99.90;;;;;;5052634;28;38460;-76
2022/04/02 05:01:01;;;;;;;8.20;3.40;;;2.00;99.90;;;;;;5055082;28;37435;-75
2022/04/02 05:03:27;;;;;;;5.43;3.33;;;2.00;99.90;;;;;;5054175;28;47246;-76
2022/04/02 05:05:55;;;;;;;5.33;3.00;;;2.00;99.90;;;;;;5054700;28;39205;-75
2022/04/02 05:08:22;;;;;;;6.07;2.87;;;1.90;99.90;;;;;;5051216;28;38214;-75
2022/04/02 05:10:48;;;;;;;6.43;3.10;;;1.90;99.90;;;;;;5054080;28;37197;-75
2022/04/02 05:13:15;;;;;;;8.77;3.77;;;1.90;99.90;;;;;;5048411;28;38754;-75
2022/04/02 05:15:45;;;;;;;6.83;3.33;;;1.90;99.90;;;;;;5070836;28;39025;-76
2022/04/02 05:18:12;;;;;;;6.10;3.63;;;1.90;99.90;;;;;;5056824;27;37816;-75
2022/04/02 05:20:39;;;;;;;8.10;3.53;;;1.90;99.90;;;;;;5061854;28;37270;-76
2022/04/02 05:23:06;;;;;;;9.37;3.20;;;1.90;99.90;;;;;;5056649;28;38832;-75
2022/04/02 05:25:33;;;;;;;6.43;3.20;;;2.00;99.90;;;;;;5060107;28;38916;-76
2022/04/02 05:28:06;;;;;;;8.67;3.37;;;1.90;99.90;;;;;;5054503;28;38764;-76
2022/04/02 05:30:39;;;;;;;6.13;3.00;;;1.90;99.90;;;;;;5056268;28;48593;-75
2022/04/02 05:33:06;;;;;;;4.47;2.93;;;2.00;99.90;;;;;;5055718;28;39229;-75
2022/04/02 05:35:33;;;;;;;7.30;3.93;;;1.90;99.90;;;;;;5060983;28;38408;-75
2022/04/02 05:37:59;;;;;;;9.90;3.40;;;1.90;99.90;;;;;;5055336;28;38036;-75
2022/04/02 05:40:26;;;;;;;6.33;3.70;;;1.90;99.90;;;;;;5057982;28;37895;-75
2022/04/02 05:42:52;;;;;;;11.70;3.30;;;1.80;99.90;;;;;;5058954;28;39324;-76
2022/04/02 05:45:18;;;;;;;8.00;3.40;;;1.80;99.90;;;;;;5061171;28;38086;-76
2022/04/02 05:47:49;;;;;;;6.53;3.30;;;1.70;99.90;;;;;;5058694;28;38090;-75
2022/04/02 05:50:17;;;;;;;5.20;2.83;;;1.70;99.90;;;;;;5061350;28;39198;-76
2022/04/02 05:52:43;;;;;;;8.80;3.93;;;1.70;99.90;;;;;;5051134;28;39942;-75
2022/04/02 05:55:11;;;;;;;8.17;3.80;;;1.60;99.90;;;;;;5057244;28;38518;-75
2022/04/02 05:57:39;;;;;;;8.43;3.67;;;1.60;99.90;;;;;;5060409;28;39236;-75
2022/04/02 06:00:08;;;;;;;7.90;3.60;;;1.60;99.90;;;;;;5059736;28;36774;-75
2022/04/02 06:02:35;;;;;;;9.80;3.50;;;1.60;99.90;;;;;;5059876;27;38253;-75
2022/04/02 06:05:01;;;;;;;7.77;3.77;;;1.60;99.90;;;;;;5059475;28;38945;-75
2022/04/02 06:07:27;;;;;;;8.70;3.70;;;1.70;99.90;;;;;;5055723;28;47459;-75
2022/04/02 06:09:53;;;;;;;7.97;3.67;;;1.70;99.90;;;;;;5059364;28;37105;-75
2022/04/02 06:12:19;;;;;;;4.80;3.30;;;1.70;99.90;;;;;;5059389;28;38601;-75
2022/04/02 06:14:46;;;;;;;17.47;3.67;;;1.80;99.90;;;;;;5053676;28;38952;-76
2022/04/02 06:17:12;;;;;;;10.27;4.60;;;1.90;99.90;;;;;;5061063;27;38159;-75
2022/04/02 06:19:38;;;;;;;11.07;3.60;;;1.90;99.90;;;;;;5060990;28;37195;-75
2022/04/02 06:22:06;;;;;;;6.37;2.73;;;2.00;99.90;;;;;;5057139;27;38827;-75
2022/04/02 06:24:35;;;;;;;5.40;3.43;;;2.10;99.90;;;;;;5069059;28;38756;-75
2022/04/02 06:27:02;;;;;;;10.57;3.50;;;2.20;99.90;;;;;;5052741;28;39084;-75
2022/04/02 06:29:28;;;;;;;6.63;3.40;;;2.30;99.90;;;;;;5050242;28;37345;-75
2022/04/02 06:31:54;;;;;;;13.40;3.80;;;2.40;99.90;;;;;;5049907;28;39691;-76
2022/04/02 06:34:21;;;;;;;7.03;3.43;;;2.50;99.90;;;;;;5050469;28;38791;-76
2022/04/02 06:36:48;;;;;;;4.73;2.70;;;2.70;99.90;;;;;;5048470;28;38276;-75
2022/04/02 06:39:14;;;;;;;7.97;3.40;;;2.70;99.90;;;;;;5066327;28;37868;-76
2022/04/02 06:41:40;;;;;;;9.13;3.27;;;2.80;99.90;;;;;;5053346;28;39661;-75
2022/04/02 06:44:09;;;;;;;6.27;3.20;;;2.80;99.90;;;;;;5049582;28;38509;-75
2022/04/02 06:46:37;;;;;;;6.97;3.40;;;2.90;99.90;;;;;;5052542;28;38312;-77
2022/04/02 06:49:06;;;;;;;7.93;3.43;;;2.90;99.90;;;;;;5045771;28;38679;-75
2022/04/02 06:51:33;;;;;;;8.20;3.60;;;2.90;99.90;;;;;;5049775;28;38869;-77
2022/04/02 06:53:59;;;;;;;7.80;3.40;;;2.90;99.90;;;;;;5056694;28;38800;-76
2022/04/02 06:56:26;;;;;;;6.27;3.17;;;2.90;99.90;;;;;;5056288;28;38703;-75
2022/04/02 06:58:52;;;;;;;5.53;3.17;;;2.80;99.90;;;;;;5057875;28;37686;-76
2022/04/02 07:01:18;;;;;;;8.50;3.07;;;2.90;99.90;;;;;;5054652;28;39114;-76
2022/04/02 07:03:44;;;;;;;6.60;2.97;;;2.90;99.90;;;;;;5055840;28;38810;-75
2022/04/02 07:06:11;;;;;;;7.53;3.13;;;3.00;99.90;;;;;;5053874;28;39092;-75
2022/04/02 07:08:37;;;;;;;9.20;3.17;;;3.00;99.90;;;;;;5054995;28;37912;-75
2022/04/02 07:11:04;;;;;;;6.63;3.30;;;3.00;99.90;;;;;;5055658;28;37917;-75
2022/04/02 07:13:30;;;;;;;9.03;2.67;;;3.10;99.90;;;;;;5050102;28;39135;-76
2022/04/02 07:15:57;;;;;;;9.53;2.73;;;3.20;99.90;;;;;;5052532;28;36961;-75
2022/04/02 07:18:24;;;;;;;9.30;3.03;;;3.20;99.90;;;;;;5059034;28;37443;-74
2022/04/02 07:20:53;;;;;;;4.97;2.60;;;3.20;99.90;;;;;;5061676;28;37752;-75
2022/04/02 07:23:20;;;;;;;5.70;2.50;;;3.30;99.90;;;;;;5056398;28;38734;-75
2022/04/02 07:25:49;;;;;;;5.97;2.67;;;3.30;99.90;;;;;;5071907;28;40016;-75
2022/04/02 07:28:15;;;;;;;6.13;2.77;;;3.40;99.90;;;;;;5058020;28;38005;-75
2022/04/02 07:30:42;;;;;;;5.20;2.63;;;3.50;99.90;;;;;;5057211;28;37057;-75
2022/04/02 07:33:08;;;;;;;7.93;2.77;;;3.50;99.90;;;;;;5057557;28;39155;-75
2022/04/02 07:35:56;;;;;;;4.40;2.47;;;3.60;99.90;;;;;;5058150;28;36924;-75
2022/04/02 07:38:30;;;;;;;7.23;2.50;;;3.70;99.90;;;;;;5055251;28;36424;-75
2022/04/02 07:41:16;;;;;;;4.23;2.60;;;3.80;99.90;;;;;;5062696;28;39902;-76
2022/04/02 07:44:07;;;;;;;4.93;2.00;;;3.80;99.90;;;;;;5062173;28;48942;-75
2022/04/02 07:46:38;;;;;;;4.00;2.37;;;3.80;99.90;;;;;;5055582;28;47668;-75
2022/04/02 07:49:08;;;;;;;3.33;2.10;;;3.90;99.90;;;;;;5060397;28;37183;-75
2022/04/02 07:51:38;;;;;;;5.73;2.13;;;3.90;99.90;;;;;;5058477;28;37939;-76
2022/04/02 07:54:06;;;;;;;6.50;2.20;;;4.10;99.90;;;;;;5054553;28;38420;-75
2022/04/02 07:56:43;;;;;;;4.00;2.10;;;4.10;99.90;;;;;;5056940;28;38056;-75
2022/04/02 07:59:18;;;;;;;6.53;2.80;;;4.20;99.90;;;;;;5061112;28;36952;-76
2022/04/02 08:01:46;;;;;;;7.90;2.67;;;4.20;99.90;;;;;;5059530;28;38588;-74
2022/04/02 08:04:12;;;;;;;5.43;2.10;;;4.30;99.90;;;;;;5042596;28;37378;-78
2022/04/02 08:06:40;;;;;;;5.00;2.20;;;4.40;99.90;;;;;;5059027;28;38460;-75
2022/04/02 08:09:08;;;;;;;3.87;1.90;;;4.50;99.90;;;;;;5058331;28;37549;-76
2022/04/02 08:11:38;;;;;;;5.80;2.00;;;4.50;99.90;;;;;;5061051;28;38951;-76
2022/04/02 08:14:05;;;;;;;7.50;2.33;;;4.60;99.90;;;;;;5057832;28;39335;-74
2022/04/02 08:16:34;;;;;;;6.43;1.93;;;4.60;99.90;;;;;;5060671;28;38004;-75
2022/04/02 08:19:02;;;;;;;4.87;2.23;;;4.80;99.90;;;;;;5064152;27;36362;-77
2022/04/02 08:21:29;;;;;;;4.83;2.17;;;5.00;99.90;;;;;;5059667;28;47138;-77
2022/04/02 08:23:55;;;;;;;6.73;2.07;;;5.10;99.90;;;;;;5061168;28;38273;-77
2022/04/02 08:26:53;;;;;;;4.53;2.03;;;5.40;99.90;;;;;;5060328;28;37878;-77
2022/04/02 08:29:30;;;;;;;4.90;1.90;;;5.60;99.90;;;;;;5062035;28;36984;-77
2022/04/02 08:32:28;;;;;;;4.23;2.13;;;5.90;99.90;;;;;;5058987;28;38858;-77
2022/04/02 08:34:55;;;;;;;3.17;1.60;;;6.30;99.90;;;;;;5059325;28;47140;-78
2022/04/02 08:37:47;;;;;;;2.77;1.60;;;6.70;99.90;;;;;;5060175;28;41356;-78
2022/04/02 08:40:36;;;;;;;2.90;1.60;;;6.80;99.90;;;;;;5059801;28;37084;-81
2022/04/02 08:43:20;;;;;;;2.63;1.57;;;7.00;99.90;;;;;;5060808;27;39384;-80
2022/04/02 08:46:16;;;;;;;3.50;1.40;;;6.60;99.90;;;;;;5062295;28;38690;-80
2022/04/02 08:48:58;;;;;;;7.63;1.83;;;6.40;99.90;;;;;;5075196;28;47082;-81
2022/04/02 08:51:46;;;;;;;6.97;1.23;;;6.40;99.90;;;;;;5055382;28;36196;-80
2022/04/02 08:54:28;;;;;;;2.13;1.10;;;6.30;99.90;;;;;;5058081;28;38374;-80
2022/04/02 08:57:30;;;;;;;4.32;1.30;;;6.00;99.90;;;;;;5059825;28;38750;-80
2022/04/02 09:00:07;;;;;;;6.03;1.10;;;5.70;99.90;;;;;;5072948;28;46989;-80
2022/04/02 09:03:09;;;;;;;1.90;1.10;;;5.50;99.90;;;;;;5061285;28;48508;-80
2022/04/02 09:06:06;;;;;;;2.37;0.87;;;5.50;99.90;;;;;;5060818;28;47072;-81
2022/04/02 09:09:29;;;;;;;3.93;1.13;;;5.50;99.90;;;;;;5058804;28;48579;-79
2022/04/02 09:12:20;;;;;;;3.70;1.58;;;5.40;99.90;;;;;;5001940;28;46745;-80
2022/04/02 09:15:07;;;;;;;1.97;1.03;;;5.60;99.90;;;;;;5016260;28;48791;-79
2022/04/02 09:17:53;;;;;;;4.80;1.67;;;6.20;99.90;;;;;;5048934;28;48703;-79
2022/04/02 09:20:37;;;;;;;2.87;1.27;;;6.60;99.90;;;;;;5028934;28;38578;-80
2022/04/02 09:23:15;;;;;;;2.70;1.47;;;6.60;99.90;;;;;;5045598;28;38296;-79
2022/04/02 09:26:22;;;;;;;3.03;1.30;;;6.30;99.90;;;;;;5063057;28;37152;-79
2022/04/02 09:29:07;;;;;;;3.33;1.10;;;5.80;99.90;;;;;;5063052;28;48449;-79
2022/04/02 09:31:52;;;;;;;1.67;1.00;;;5.60;99.90;;;;;;5060776;28;46979;-79
2022/04/02 09:34:49;;;;;;;3.67;1.00;;;5.40;99.90;;;;;;5060112;28;37705;-78
2022/04/02 09:37:34;;;;;;;1.00;0.90;;;5.50;99.90;;;;;;5072348;28;38461;-83
2022/04/02 09:40:09;;;;;;;4.33;1.20;;;5.80;99.90;;;;;;5063004;28;38664;-79
2022/04/02 09:42:39;;;;;;;6.50;1.47;;;5.70;99.90;;;;;;5060261;28;47502;-79
2022/04/02 09:45:09;;;;;;;2.90;1.10;;;5.60;99.90;;;;;;5059688;28;39222;-79
2022/04/02 09:48:05;;;;;;;4.57;1.03;;;5.60;99.90;;;;;;5060420;28;38545;-79
2022/04/02 09:50:32;;;;;;;2.87;1.20;;;6.00;99.90;;;;;;5060924;28;47048;-78
2022/04/02 09:53:24;;;;;;;2.87;1.20;;;6.50;99.90;;;;;;5062466;28;38418;-81
2022/04/02 09:56:02;;;;;;;2.40;1.50;;;6.60;99.90;;;;;;5076168;28;47179;-79
2022/04/02 09:58:55;;;;;;;3.07;1.10;;;6.40;99.90;;;;;;5062196;28;48815;-79
2022/04/02 10:01:21;;;;;;;;;;;6.80;99.90;;;;;;5045049;28;40789;-79
2022/04/02 10:04:09;;;;;;;7.60;1.30;;;7.00;99.90;;;;;;5064359;27;38251;-78
2022/04/02 10:06:40;;;;;;;7.60;1.30;;;6.90;99.90;;;;;;5062848;28;48665;-79
2022/04/02 10:09:07;;;;;;;2.60;1.00;;;7.20;99.90;;;;;;5061710;27;37043;-79
2022/04/02 10:11:46;;;;;;;4.00;1.47;;;7.00;99.90;;;;;;5065412;28;38981;-79
2022/04/02 10:14:28;;;;;;;1.83;1.00;;;7.40;99.90;;;;;;5060229;28;40060;-80
2022/04/02 10:17:02;;;;;;;2.00;0.80;;;7.60;99.90;;;;;;5059839;28;39859;-80
2022/04/02 10:19:31;;;;;;;4.40;1.50;;;7.40;99.90;;;;;;5060340;28;47332;-79
2022/04/02 10:22:03;;;;;;;5.20;1.43;;;7.50;99.90;;;;;;5056929;28;39182;-79
2022/04/02 10:24:38;;;;;;;6.10;1.33;;;7.60;99.90;;;;;;5056857;28;47495;-79
2022/04/02 10:27:13;;;;;;;2.80;1.50;;;8.10;99.90;;;;;;5059744;27;37911;-78
2022/04/02 10:29:58;;;;;;;2.60;1.27;;;8.50;99.90;;;;;;5056439;28;37240;-79
2022/04/02 10:32:33;;;;;;;3.17;1.27;;;8.80;99.90;;;;;;5063140;28;40186;-79
2022/04/02 10:35:06;;;;;;;2.63;1.40;;;8.50;99.90;;;;;;5061043;28;39266;-79
2022/04/02 10:37:37;;;;;;;;;;;8.20;99.90;;;;;;5065198;28;48631;-79
2022/04/02 10:40:06;;;;;;;4.93;1.10;;;8.50;99.90;;;;;;5059310;28;37331;-79
2022/04/02 10:42:38;;;;;;;2.40;1.10;;;8.30;99.90;;;;;;5055810;28;40467;-79
2022/04/02 10:45:12;;;;;;;3.20;1.50;;;8.00;99.90;;;;;;5056309;28;39015;-78
2022/04/02 10:47:43;;;;;;;3.50;1.40;;;8.60;99.90;;;;;;5056715;28;39111;-80
2022/04/02 10:50:10;;;;;;;3.17;1.40;;;8.70;99.90;;;;;;5057969;28;40102;-78
2022/04/02 10:52:38;;;;;;;6.03;1.30;;;8.50;99.90;;;;;;5061820;28;40107;-79
2022/04/02 10:55:04;;;;;;;3.37;1.10;;;8.40;99.90;;;;;;5065629;28;39170;-79
2022/04/02 10:57:34;;;;;;;2.33;1.07;;;8.70;99.90;;;;;;5062814;28;37708;-81
2022/04/02 11:00:09;;;;;;;4.77;1.97;;;8.90;99.90;;;;;;5058988;28;39116;-77
2022/04/02 11:02:40;;;;;;;2.70;0.97;;;9.20;99.90;;;;;;5066139;27;48715;-77
2022/04/02 11:05:08;;;;;;;4.20;1.10;;;9.20;99.90;;;;;;5060732;28;39140;-79
2022/04/02 11:07:46;;;;;;;1.73;0.90;;;9.00;99.90;;;;;;5073469;28;38621;-77
2022/04/02 11:10:21;;;;;;;2.70;1.07;;;8.70;99.90;;;;;;5055893;28;37234;-79
2022/04/02 11:12:50;;;;;;;2.10;1.00;;;8.30;99.90;;;;;;5057353;28;39523;-79
2022/04/02 11:15:20;;;;;;;2.73;1.10;;;8.00;99.90;;;;;;5061463;28;39137;-80
2022/04/02 11:17:48;;;;;;;2.33;0.93;;;8.30;99.90;;;;;;5059129;28;38047;-82
2022/04/02 11:20:23;;;;;;;4.20;1.20;;;8.60;99.90;;;;;;5053601;28;38888;-76
2022/04/02 11:22:52;;;;;;;2.47;1.07;;;8.50;99.90;;;;;;5050360;28;39320;-79
2022/04/02 11:25:31;;;;;;;2.87;1.33;;;8.20;99.90;;;;;;5074188;28;38653;-79
2022/04/02 11:28:17;;;;;;;2.87;1.30;;;7.60;99.90;;;;;;5059397;28;37941;-79
2022/04/02 11:30:47;;;;;;;1.87;1.30;;;7.40;99.90;;;;;;5073148;28;46852;-79
2022/04/02 11:33:19;;;;;;;3.97;1.30;;;7.30;99.90;;;;;;5056088;28;39551;-78
2022/04/02 11:35:54;;;;;;;2.33;1.20;;;7.30;99.90;;;;;;5059799;28;37728;-78
2022/04/02 11:38:20;;;;;;;2.73;1.30;;;8.00;99.90;;;;;;5055562;27;39790;-79
2022/04/02 11:40:49;;;;;;;3.23;1.97;;;8.40;99.90;;;;;;5063327;28;36366;-79
2022/04/02 11:43:17;;;;;;;2.43;1.10;;;8.90;99.90;;;;;;5058929;27;37960;-76
2022/04/02 11:45:46;;;;;;;4.27;1.37;;;9.20;99.90;;;;;;5056683;28;38033;-77
2022/04/02 11:48:15;;;;;;;1.87;1.23;;;9.20;99.90;;;;;;5079412;28;38470;-76
2022/04/02 11:50:45;;;;;;;3.53;1.27;;;9.00;99.90;;;;;;5062053;28;38159;-77
2022/04/02 11:53:13;;;;;;;3.20;1.10;;;8.80;99.90;;;;;;5060511;27;38172;-78
2022/04/02 11:55:41;;;;;;;2.83;1.23;;;8.20;99.90;;;;;;5059941;28;38642;-79
2022/04/02 11:58:13;;;;;;;3.00;1.13;;;7.80;99.90;;;;;;5060057;27;37833;-79
2022/04/02 12:00:41;;;;;;;3.28;1.08;;;8.40;99.90;;;;;;5059986;28;37887;-79
2022/04/02 12:03:27;;;;;;;1.90;1.00;;;7.70;99.90;;;;;;5064731;27;38858;-79
2022/04/02 12:05:53;;;;;;;2.37;1.10;;;7.60;99.90;;;;;;5059606;28;37252;-78
2022/04/02 12:08:30;;;;;;;2.67;1.37;;;8.20;99.90;;;;;;5058891;28;38258;-79
2022/04/02 12:11:00;;;;;;;1.90;1.20;;;8.20;99.90;;;;;;5060273;28;37139;-78
2022/04/02 12:13:27;;;;;;;2.57;1.00;;;8.40;99.90;;;;;;5043333;28;38206;-79
2022/04/02 12:16:13;;;;;;;2.60;1.13;;;8.90;99.90;;;;;;5060376;28;38631;-79
2022/04/02 12:18:55;;;;;;;3.70;0.95;;;9.60;99.90;;;;;;5060652;28;47189;-77
2022/04/02 12:21:36;;;;;;;2.60;1.40;;;9.40;99.90;;;;;;5059756;28;36103;-77
2022/04/02 12:24:03;;;;;;;2.35;1.00;;;9.30;99.90;;;;;;5062599;28;38378;-75
2022/04/02 12:26:30;;;;;;;4.05;1.30;;;9.60;99.90;;;;;;5082221;27;38862;-77
2022/04/02 12:28:59;;;;;;;1.70;0.95;;;10.00;99.90;;;;;;5060745;28;38490;-77
2022/04/02 12:31:27;;;;;;;2.20;1.10;;;10.30;99.90;;;;;;5060003;28;36214;-77
2022/04/02 12:33:54;;;;;;;1.20;0.93;;;10.30;99.90;;;;;;5062224;28;39106;-79
2022/04/02 12:36:33;;;;;;;1.70;1.20;;;10.10;99.90;;;;;;5054090;28;38478;-77
2022/04/02 12:39:05;;;;;;;1.98;0.98;;;10.30;99.90;;;;;;5067205;28;38286;-77
2022/04/02 12:41:32;;;;;;;3.15;1.20;;;10.90;99.90;;;;;;5057662;28;47368;-77
2022/04/02 12:44:01;;;;;;;6.63;1.20;;;10.50;99.90;;;;;;5064034;27;38738;-77
2022/04/02 12:46:28;;;;;;;4.95;1.20;;;10.50;99.90;;;;;;5063073;28;47595;-77
2022/04/02 12:48:55;;;;;;;3.28;1.33;;;10.60;99.90;;;;;;5059562;28;39757;-76
2022/04/02 12:51:23;;;;;;;2.33;1.38;;;10.80;99.90;;;;;;5059151;28;37441;-77
2022/04/02 12:54:02;;;;;;;3.65;1.75;;;11.00;99.90;;;;;;5051796;28;39510;-77
2022/04/02 12:56:30;;;;;;;2.63;1.35;;;10.60;99.90;;;;;;5062127;28;48518;-76
2022/04/02 12:58:58;;;;;;;3.80;1.35;;;9.60;99.90;;;;;;5058644;28;39018;-77
2022/04/02 13:01:33;;;;;;;2.38;1.30;;;9.00;99.90;;;;;;5056993;28;36369;-77
2022/04/02 13:04:08;;;;;;;3.77;1.60;;;8.50;99.90;;;;;;5056013;28;39384;-79
2022/04/02 13:06:41;;;;;;;5.50;2.03;;;7.70;99.90;;;;;;5049298;28;47211;-79
2022/04/02 13:09:14;;;;;;;2.63;1.40;;;7.40;99.90;;;;;;5054715;28;39029;-80
2022/04/02 13:11:45;;;;;;;3.40;1.33;;;8.30;99.90;;;;;;5059230;28;35172;-76
2022/04/02 13:14:23;;;;;;;4.80;1.23;;;9.30;99.90;;;;;;5059278;28;20130;-78
2022/04/02 13:16:53;;;;;;;8.53;1.47;;;10.20;99.90;;;;;;5042997;28;38800;-77
2022/04/02 13:22:13;;;;;;;3.33;1.40;;;10.00;99.90;;;;;;5050621;28;37697;-76